Time;durP1;ratioP1;P1;durP2;ratioP2;P2;SDS_P1;SDS_P2;PMS_P1;PMS_P2;Temp;Humidity;BMP_temperature;BMP_pressure;BME280_temperature;BME280_humidity;BME280_pressure;Samples;Min_cycle;Max_cycle;Signal;HPM_P1;HPM_P2
2022/03/08 00:00:41;;;;;;;;;;;1.80;99.90;;;;;;4933909;29;19934;-83
2022/03/08 00:03:09;;;;;;;;;;;1.60;99.90;;;;;;4967039;28;19931;-84
2022/03/08 00:05:39;;;;;;;;;;;1.60;99.90;;;;;;4917808;29;19926;-83
2022/03/08 00:08:07;;;;;;;;;;;1.50;99.90;;;;;;4946684;29;19927;-83
2022/03/08 00:10:36;;;;;;;;;;;1.50;99.90;;;;;;4948118;29;19937;-83
2022/03/08 00:13:04;;;;;;;;;;;1.50;99.90;;;;;;4931703;29;19927;-84
2022/03/08 00:15:33;;;;;;;;;;;1.50;99.90;;;;;;4948205;29;20320;-84
2022/03/08 00:18:02;;;;;;;;;;;1.40;99.90;;;;;;4948480;29;19927;-83
2022/03/08 00:20:30;;;;;;;;;;;1.80;99.90;;;;;;4931384;29;19934;-84
2022/03/08 00:23:00;;;;;;;;;;;1.30;99.90;;;;;;4947085;29;19926;-84
2022/03/08 00:25:29;;;;;;;;;;;1.30;99.90;;;;;;4942046;29;19927;-83
2022/03/08 00:27:57;;;;;;;;;;;1.30;99.90;;;;;;4953565;29;20368;-82
2022/03/08 00:30:27;;;;;;;;;;;1.40;99.90;;;;;;4965919;29;19933;-84
2022/03/08 00:32:55;;;;;;;;;;;1.10;99.90;;;;;;4967711;29;19941;-83
2022/03/08 00:35:25;;;;;;;;;;;1.10;99.90;;;;;;4935734;29;19948;-84
2022/03/08 00:37:55;;;;;;;;;;;1.10;99.90;;;;;;4920175;29;19931;-83
2022/03/08 00:40:23;;;;;;;;;;;1.10;99.90;;;;;;4942599;29;19934;-83
2022/03/08 00:42:52;;;;;;;;;;;1.20;99.90;;;;;;4963117;29;19926;-82
2022/03/08 00:45:21;;;;;;;;;;;1.40;99.90;;;;;;4948787;29;19941;-84
2022/03/08 00:47:54;;;;;;;;;;;1.00;99.90;;;;;;4946173;29;19938;-84
2022/03/08 00:50:26;;;;;;;;;;;1.00;99.90;;;;;;4930306;29;19938;-83
2022/03/08 00:52:56;;;;;;;;;;;0.90;99.90;;;;;;4948503;29;19926;-83
2022/03/08 00:55:27;;;;;;;;;;;0.90;99.90;;;;;;4931488;29;19926;-82
2022/03/08 00:57:56;;;;;;;;;;;0.90;99.90;;;;;;4948027;29;19938;-84
2022/03/08 01:00:26;;;;;;;;;;;0.80;99.90;;;;;;4934133;29;20455;-83
2022/03/08 01:02:57;;;;;;;;;;;0.80;99.90;;;;;;4915695;29;19931;-83
2022/03/08 01:05:30;;;;;;;;;;;0.80;99.90;;;;;;4938186;29;19937;-83
2022/03/08 01:07:59;;;;;;;;;;;0.70;99.90;;;;;;4944822;29;19934;-84
2022/03/08 01:10:28;;;;;;;;;;;0.70;99.90;;;;;;4947067;29;19926;-84
2022/03/08 01:12:57;;;;;;;;;;;0.60;99.90;;;;;;4928653;29;20084;-83
2022/03/08 01:15:26;;;;;;;;;;;-0.60;99.90;;;;;;4916085;29;19931;-83
2022/03/08 01:17:55;;;;;;;;;;;0.70;99.90;;;;;;4932360;29;19946;-83
2022/03/08 01:20:23;;;;;;;;;;;0.60;99.90;;;;;;4914751;29;19930;-82
2022/03/08 01:22:54;;;;;;;;;;;0.50;99.90;;;;;;4914044;29;19927;-84
2022/03/08 01:25:22;;;;;;;;;;;0.90;99.90;;;;;;4931063;29;19926;-85
2022/03/08 01:27:53;;;;;;;;;;;0.50;99.90;;;;;;4921609;29;19927;-83
2022/03/08 01:30:25;;;;;;;;;;;0.50;99.90;;;;;;4951544;29;19925;-83
2022/03/08 01:32:53;;;;;;;;;;;0.50;99.90;;;;;;4931654;29;19938;-82
2022/03/08 01:35:22;;;;;;;;;;;0.40;99.90;;;;;;4946861;29;19931;-83
2022/03/08 01:37:50;;;;;;;;;;;0.40;99.90;;;;;;4947971;29;19945;-82
2022/03/08 01:40:19;;;;;;;;;;;-0.70;99.90;;;;;;4946084;29;19927;-82
2022/03/08 01:42:49;;;;;;;;;;;0.40;99.90;;;;;;4961627;29;19938;-82
2022/03/08 01:45:24;;;;;;;;;;;0.40;99.90;;;;;;4937486;29;19926;-82
2022/03/08 01:47:52;;;;;;;;;;;0.40;99.90;;;;;;4925166;29;19933;-83
2022/03/08 01:50:22;;;;;;;;;;;0.50;99.90;;;;;;4924517;29;19931;-83
2022/03/08 01:52:50;;;;;;;;;;;0.50;99.90;;;;;;4912347;29;19946;-83
2022/03/08 01:55:17;;;;;;;;;;;0.40;99.90;;;;;;4943307;29;19927;-84
2022/03/08 01:57:47;;;;;;;;;;;0.30;99.90;;;;;;4933974;29;19931;-84
2022/03/08 02:00:18;;;;;;;;;;;0.20;99.90;;;;;;4944159;29;19930;-83
2022/03/08 02:02:46;;;;;;;;;;;0.30;99.90;;;;;;4945797;29;19927;-83
2022/03/08 02:05:22;;;;;;;;;;;0.30;99.90;;;;;;4944790;29;19947;-83
2022/03/08 02:07:50;;;;;;;;;;;0.30;99.90;;;;;;4944263;29;20459;-83
2022/03/08 02:10:18;;;;;;;;;;;0.40;99.90;;;;;;4945172;29;19937;-83
2022/03/08 02:12:47;;;;;;;;;;;-0.10;99.90;;;;;;4961023;29;19927;-84
2022/03/08 02:15:23;;;;;;;;;;;0.20;99.90;;;;;;4928821;29;19931;-84
2022/03/08 02:17:54;;;;;;;;;;;0.10;99.90;;;;;;4925703;29;19931;-82
2022/03/08 02:20:21;;;;;;;;;;;0.40;99.90;;;;;;4926675;29;19931;-83
2022/03/08 02:22:51;;;;;;;;;;;0.20;99.90;;;;;;4914707;29;19927;-83
2022/03/08 02:25:20;;;;;;;;;;;0.30;99.90;;;;;;4947134;29;19927;-83
2022/03/08 02:27:51;;;;;;;;;;;0.20;99.90;;;;;;4929745;29;19927;-83
2022/03/08 02:30:20;;;;;;;;;;;0.30;99.90;;;;;;4929074;29;19937;-84
2022/03/08 02:32:49;;;;;;;;;;;0.20;99.90;;;;;;4949565;29;19931;-83
2022/03/08 02:35:21;;;;;;;;;;;1.30;99.90;;;;;;4935918;29;19938;-83
2022/03/08 02:37:52;;;;;;;;;;;0.20;99.90;;;;;;4950936;29;19934;-83
2022/03/08 02:40:22;;;;;;;;;;;0.30;99.90;;;;;;4947672;29;19930;-83
2022/03/08 02:42:50;;;;;;;;;;;0.30;99.90;;;;;;4967108;29;19930;-83
2022/03/08 02:45:19;;;;;;;;;;;0.30;99.90;;;;;;4968473;29;19927;-83
2022/03/08 02:47:47;;;;;;;;;;;0.30;99.90;;;;;;4930294;29;19927;-83
2022/03/08 02:50:15;;;;;;;;;;;0.30;99.90;;;;;;4929914;29;19941;-82
2022/03/08 02:52:44;;;;;;;;;;;0.20;99.90;;;;;;4933662;29;19926;-82
2022/03/08 02:55:12;;;;;;;;;;;0.30;99.90;;;;;;4933094;29;19930;-82
2022/03/08 02:57:41;;;;;;;;;;;0.30;99.90;;;;;;4948407;29;19930;-82
2022/03/08 03:00:11;;;;;;;;;;;0.30;99.90;;;;;;4936639;29;20526;-82
2022/03/08 03:02:41;;;;;;;;;;;0.30;99.90;;;;;;4933166;29;19930;-82
2022/03/08 03:05:09;;;;;;;;;;;0.30;99.90;;;;;;4950441;29;19941;-82
2022/03/08 03:07:39;;;;;;;;;;;-0.60;99.90;;;;;;4950568;29;20300;-82
2022/03/08 03:10:08;;;;;;;;;;;0.30;99.90;;;;;;4949099;29;19933;-83
2022/03/08 03:12:36;;;;;;;;;;;0.30;99.90;;;;;;4949863;29;19926;-83
2022/03/08 03:15:06;;;;;;;;;;;0.30;99.90;;;;;;4967904;29;19930;-83
2022/03/08 03:17:34;;;;;;;;;;;0.20;99.90;;;;;;4951966;29;19927;-82
2022/03/08 03:20:04;;;;;;;;;;;0.20;99.90;;;;;;4952193;29;19938;-83
2022/03/08 03:22:33;;;;;;;;;;;0.30;99.90;;;;;;4915909;29;19931;-82
2022/03/08 03:25:02;;;;;;;;;;;0.50;99.90;;;;;;4934044;29;19927;-83
2022/03/08 03:27:31;;;;;;;;;;;0.20;99.90;;;;;;4949191;29;19931;-84
2022/03/08 03:29:59;;;;;;;;;;;0.10;99.90;;;;;;4950016;29;19927;-83
2022/03/08 03:32:27;;;;;;;;;;;0.20;99.90;;;;;;4952290;29;19942;-83
2022/03/08 03:34:55;;;;;;;;;;;0.20;99.90;;;;;;4952201;29;19933;-83
2022/03/08 03:37:26;;;;;;;;;;;0.10;99.90;;;;;;4951995;29;19926;-83
2022/03/08 03:39:54;;;;;;;;;;;0.10;99.90;;;;;;4951780;28;19933;-84
2022/03/08 03:42:22;;;;;;;;;;;0.10;99.90;;;;;;4931261;29;19930;-83
2022/03/08 03:44:50;;;;;;;;;;;0.10;99.90;;;;;;4949571;29;19934;-83
2022/03/08 03:47:19;;;;;;;;;;;0.10;99.90;;;;;;4949036;29;19933;-82
2022/03/08 03:49:47;;;;;;;;;;;0.10;99.90;;;;;;4948137;29;19933;-83
2022/03/08 03:52:15;;;;;;;;;;;0.10;99.90;;;;;;4934135;29;19927;-83
2022/03/08 03:54:43;;;;;;;;;;;0.30;99.90;;;;;;4968368;29;19937;-83
2022/03/08 03:57:12;;;;;;;;;;;0.10;99.90;;;;;;4247159;29;9999667;-82
2022/03/08 03:59:39;;;;;;;;;;;0.30;99.90;;;;;;4949624;29;19930;-82
2022/03/08 04:02:07;;;;;;;;;;;0.20;99.90;;;;;;4948301;29;19935;-82
2022/03/08 04:04:36;;;;;;;;;;;0.20;99.90;;;;;;4931606;29;19937;-82
2022/03/08 04:07:04;;;;;;;;;;;0.30;99.90;;;;;;4931938;29;20384;-82
2022/03/08 04:09:33;;;;;;;;;;;0.20;99.90;;;;;;4916579;29;19927;-82
2022/03/08 04:12:00;;;;;;;;;;;0.20;99.90;;;;;;4957213;29;19937;-81
2022/03/08 04:14:28;;;;;;;;;;;0.20;99.90;;;;;;4960212;29;19927;-82
2022/03/08 04:16:57;;;;;;;;;;;0.30;99.90;;;;;;4915471;29;19939;-82
2022/03/08 04:19:25;;;;;;;;;;;0.20;99.90;;;;;;4924109;29;19934;-82
2022/03/08 04:21:54;;;;;;;;;;;0.20;99.90;;;;;;4946939;29;19930;-82
2022/03/08 04:24:24;;;;;;;;;;;0.20;99.90;;;;;;4953419;29;19943;-81
2022/03/08 04:26:52;;;;;;;;;;;0.30;99.90;;;;;;4950889;29;19928;-83
2022/03/08 04:29:19;;;;;;;;;;;0.30;99.90;;;;;;4966866;29;19926;-84
2022/03/08 04:31:47;;;;;;;;;;;0.30;99.90;;;;;;4966910;29;19933;-83
2022/03/08 04:34:15;;;;;;;;;;;-0.70;99.90;;;;;;4945219;29;19931;-83
2022/03/08 04:36:43;;;;;;;;;;;0.30;99.90;;;;;;4963617;29;19934;-83
2022/03/08 04:39:11;;;;;;;;;;;0.40;99.90;;;;;;4948023;29;19937;-84
2022/03/08 04:41:39;;;;;;;;;;;0.40;99.90;;;;;;4946643;29;19926;-81
2022/03/08 04:44:08;;;;;;;;;;;0.40;99.90;;;;;;4948186;29;19933;-83
2022/03/08 04:46:40;;;;;;;;;;;0.50;99.90;;;;;;4930688;29;19933;-83
2022/03/08 04:49:09;;;;;;;;;;;0.50;99.90;;;;;;4947571;29;19935;-84
2022/03/08 04:51:38;;;;;;;;;;;0.50;99.90;;;;;;4947445;29;19926;-81
2022/03/08 04:54:06;;;;;;;;;;;0.60;99.90;;;;;;4946535;29;19938;-83
2022/03/08 04:56:34;;;;;;;;;;;0.60;99.90;;;;;;4947043;29;19934;-83
2022/03/08 04:59:03;;;;;;;;;;;0.70;99.90;;;;;;4948857;29;19926;-82
2022/03/08 05:01:31;;;;;;;;;;;0.60;99.90;;;;;;4943243;29;19937;-82
2022/03/08 05:04:00;;;;;;;;;;;0.60;99.90;;;;;;4929326;29;19933;-81
2022/03/08 05:06:30;;;;;;;;;;;0.60;99.90;;;;;;4946860;29;19927;-82
2022/03/08 05:08:58;;;;;;;;;;;0.60;99.90;;;;;;4946667;29;20284;-81
2022/03/08 05:11:25;;;;;;;;;;;0.70;99.90;;;;;;4921121;29;19931;-82
2022/03/08 05:13:53;;;;;;;;;;;0.60;99.90;;;;;;4966603;29;19936;-81
2022/03/08 05:16:21;;;;;;;;;;;0.60;99.90;;;;;;4951983;29;19926;-82
2022/03/08 05:18:49;;;;;;;;;;;0.70;99.90;;;;;;4929999;29;19933;-82
2022/03/08 05:21:17;;;;;;;;;;;0.80;99.90;;;;;;4946638;29;19933;-83
2022/03/08 05:23:45;;;;;;;;;;;0.70;99.90;;;;;;4943026;29;19934;-82
2022/03/08 05:26:13;;;;;;;;;;;0.80;99.90;;;;;;4945835;29;19926;-81
2022/03/08 05:28:46;;;;;;;;;;;0.70;99.90;;;;;;4945705;29;19931;-82
2022/03/08 05:31:15;;;;;;;;;;;0.70;99.90;;;;;;4958519;29;19933;-82
2022/03/08 05:33:43;;;;;;;;;;;0.80;99.90;;;;;;4933713;29;19931;-81
2022/03/08 05:36:12;;;;;;;;;;;0.80;99.90;;;;;;4950137;29;19938;-82
2022/03/08 05:38:40;;;;;;;;;;;0.90;99.90;;;;;;4965540;29;19930;-82
2022/03/08 05:41:09;;;;;;;;;;;0.80;99.90;;;;;;4930174;29;19931;-82
2022/03/08 05:43:36;;;;;;;;;;;0.90;99.90;;;;;;4946285;29;19927;-82
2022/03/08 05:46:05;;;;;;;;;;;1.10;99.90;;;;;;4941270;29;19935;-82
2022/03/08 05:48:33;;;;;;;;;;;0.80;99.90;;;;;;4920421;29;19941;-83
2022/03/08 05:51:00;;;;;;;;;;;0.80;99.90;;;;;;4909619;29;19931;-83
2022/03/08 05:53:29;;;;;;;;;;;0.80;99.90;;;;;;4930987;29;19934;-83
2022/03/08 05:55:57;;;;;;;;;;;0.90;99.90;;;;;;4945321;29;19927;-82
2022/03/08 05:58:30;;;;;;;;;;;1.10;99.90;;;;;;4570823;29;10000242;-82
2022/03/08 06:00:59;;;;;;;;;;;1.10;99.90;;;;;;4936336;29;19938;-82
2022/03/08 06:03:27;;;;;;;;;;;0.90;99.90;;;;;;4924620;29;19931;-81
2022/03/08 06:05:56;;;;;;;;;;;0.90;99.90;;;;;;4927990;29;19931;-81
2022/03/08 06:08:25;;;;;;;;;;;0.90;99.90;;;;;;4927393;29;19931;-82
2022/03/08 06:10:56;;;;;;;;;;;0.90;99.90;;;;;;4953112;29;19930;-81
2022/03/08 06:13:24;;;;;;;;;;;0.90;99.90;;;;;;4963143;29;19935;-82
2022/03/08 06:15:52;;;;;;;;;;;1.40;99.90;;;;;;4947922;29;19926;-81
2022/03/08 06:18:20;;;;;;;;;;;0.90;99.90;;;;;;4948156;29;19936;-82
2022/03/08 06:20:48;;;;;;;;;;;1.20;99.90;;;;;;4947949;29;19926;-83
2022/03/08 06:23:18;;;;;;;;;;;0.90;99.90;;;;;;4947140;29;19956;-81
2022/03/08 06:25:46;;;;;;;;;;;1.10;99.90;;;;;;4931918;29;19931;-82
2022/03/08 06:28:14;;;;;;;;;;;0.90;99.90;;;;;;4946689;29;19931;-81
2022/03/08 06:30:43;;;;;;;;;;;0.90;99.90;;;;;;4964450;29;19931;-81
2022/03/08 06:33:11;;;;;;;;;;;0.90;99.90;;;;;;4951358;29;19930;-81
2022/03/08 06:35:39;;;;;;;;;;;1.00;99.90;;;;;;4936472;29;19927;-82
2022/03/08 06:38:07;;;;;;;;;;;0.90;99.90;;;;;;4959563;29;19937;-81
2022/03/08 06:40:35;;;;;;;;;;;1.00;99.90;;;;;;4950545;29;19945;-83
2022/03/08 06:43:04;;;;;;;;;;;1.00;99.90;;;;;;4968537;29;19927;-82
2022/03/08 06:45:32;;;;;;;;;;;1.00;99.90;;;;;;4966482;29;19927;-83
2022/03/08 06:48:00;;;;;;;;;;;0.40;99.90;;;;;;4931795;29;19931;-82
2022/03/08 06:50:28;;;;;;;;;;;1.00;99.90;;;;;;4948163;29;20191;-83
2022/03/08 06:52:56;;;;;;;;;;;1.50;99.90;;;;;;4947892;29;19927;-82
2022/03/08 06:55:25;;;;;;;;;;;1.10;99.90;;;;;;4955474;29;20562;-83
2022/03/08 06:57:53;;;;;;;;;;;0.70;99.90;;;;;;4904187;29;19926;-83
2022/03/08 07:00:22;;;;;;;;;;;1.10;99.90;;;;;;4960119;29;19954;-84
2022/03/08 07:02:52;;;;;;;;;;;1.10;99.90;;;;;;4948540;29;19933;-83
2022/03/08 07:05:20;;;;;;;;;;;1.20;99.90;;;;;;4943814;29;19938;-82
2022/03/08 07:07:48;;;;;;;;;;;1.20;99.90;;;;;;4948199;29;19926;-82
2022/03/08 07:10:17;;;;;;;;;;;1.30;99.90;;;;;;4932532;29;19927;-82
2022/03/08 07:12:45;;;;;;;;;;;1.30;99.90;;;;;;4944081;29;20681;-83
2022/03/08 07:15:15;;;;;;;;;;;1.60;99.90;;;;;;4946450;29;20328;-83
2022/03/08 07:17:45;;;;;;;;;;;1.60;99.90;;;;;;4947820;29;19937;-82
2022/03/08 07:20:14;;;;;;;;;;;1.90;99.90;;;;;;4947625;29;19934;-83
2022/03/08 07:22:43;;;;;;;;;;;1.60;99.90;;;;;;4948174;29;19927;-82
2022/03/08 07:25:15;;;;;;;;;;;1.60;99.90;;;;;;4945799;29;19933;-83
2022/03/08 07:27:47;;;;;;;;;;;1.70;99.90;;;;;;4931263;29;20534;-87
2022/03/08 07:30:39;;;;;;;;;;;1.80;99.90;;;;;;4945594;29;19934;-84
2022/03/08 07:33:09;;;;;;;;;;;2.30;99.90;;;;;;4945786;29;19934;-84
2022/03/08 07:35:37;;;;;;;;;;;2.00;99.90;;;;;;4947394;29;19937;-83
2022/03/08 07:38:06;;;;;;;;;;;2.10;99.90;;;;;;4944899;29;19937;-85
2022/03/08 07:40:34;;;;;;;;;;;0.50;99.90;;;;;;4927485;29;19931;-82
2022/03/08 07:43:03;;;;;;;;;;;2.80;99.90;;;;;;4947922;29;20248;-82
2022/03/08 07:45:36;;;;;;;;;;;2.20;99.90;;;;;;4947696;29;19931;-81
2022/03/08 07:48:06;;;;;;;;;;;2.50;99.90;;;;;;4943730;29;19931;-86
2022/03/08 07:50:37;;;;;;;;;;;2.80;99.90;;;;;;4956116;29;19942;-80
2022/03/08 07:53:05;;;;;;;;;;;2.50;99.90;;;;;;4946727;29;19938;-80
2022/03/08 07:55:34;;;;;;;;;;;3.30;99.90;;;;;;4944471;29;19934;-80
2022/03/08 07:58:03;;;;;;;;;;;2.60;99.90;;;;;;4923248;29;19937;-81
2022/03/08 08:00:32;;;;;;;;;;;2.70;99.90;;;;;;4946037;29;19942;-81
2022/03/08 08:03:03;;;;;;;;;;;2.80;99.90;;;;;;4947881;29;19930;-81
2022/03/08 08:05:34;;;;;;;;;;;2.90;99.90;;;;;;4941425;29;19938;-81
2022/03/08 08:08:03;;;;;;;;;;;3.00;99.90;;;;;;4930067;29;19933;-78
2022/03/08 08:10:33;;;;;;;;;;;3.10;99.90;;;;;;4944076;29;19935;-80
2022/03/08 08:13:01;;;;;;;;;;;3.10;99.90;;;;;;4929435;29;19927;-80
2022/03/08 08:15:28;;;;;;;;;;;3.20;99.90;;;;;;4944551;29;20329;-79
2022/03/08 08:17:56;;;;;;;;;;;3.40;99.90;;;;;;4946792;29;19927;-80
2022/03/08 08:20:24;;;;;;;;;;;3.30;99.90;;;;;;4937601;29;19934;-81
2022/03/08 08:22:52;;;;;;;;;;;3.50;99.90;;;;;;4941221;29;19939;-80
2022/03/08 08:25:21;;;;;;;;;;;3.50;99.90;;;;;;4942921;29;19941;-78
2022/03/08 08:27:49;;;;;;;;;;;3.60;99.90;;;;;;4925323;29;20381;-79
2022/03/08 08:30:18;;;;;;;;;;;3.70;99.90;;;;;;4926475;29;19934;-80
2022/03/08 08:32:46;;;;;;;;;;;3.70;99.90;;;;;;4926845;29;19941;-80
2022/03/08 08:35:15;;;;;;;;;;;3.80;99.90;;;;;;4904785;29;19941;-81
2022/03/08 08:37:42;;;;;;;;;;;4.00;99.90;;;;;;4942195;29;19927;-79
2022/03/08 08:40:11;;;;;;;;;;;3.90;99.90;;;;;;4943219;29;20636;-80
2022/03/08 08:42:40;;;;;;;;;;;4.00;99.90;;;;;;4959159;29;19937;-81
2022/03/08 08:45:10;;;;;;;;;;;4.10;99.90;;;;;;4929951;29;19934;-80
2022/03/08 08:47:39;;;;;;;;;;;4.10;99.90;;;;;;4960440;29;19926;-79
2022/03/08 08:50:07;;;;;;;;;;;4.20;99.90;;;;;;4929636;29;19937;-80
2022/03/08 08:52:35;;;;;;;;;;;4.30;99.90;;;;;;4946483;29;19935;-81
2022/03/08 08:55:04;;;;;;;;;;;4.30;99.90;;;;;;4946172;29;20475;-80
2022/03/08 08:57:37;;;;;;;;;;;4.40;99.90;;;;;;4958902;29;19933;-80
2022/03/08 09:00:08;;;;;;;;;;;4.50;99.90;;;;;;4912895;29;19927;-80
2022/03/08 09:02:40;;;;;;;;;;;4.50;99.90;;;;;;4921807;29;19946;-80
2022/03/08 09:05:09;;;;;;;;;;;4.60;99.90;;;;;;4935167;29;19941;-81
2022/03/08 09:07:37;;;;;;;;;;;4.80;99.90;;;;;;4957237;29;19930;-82
2022/03/08 09:10:08;;;;;;;;;;;4.80;99.90;;;;;;4957535;29;20292;-81
2022/03/08 09:12:37;;;;;;;;;;;5.30;99.90;;;;;;4927382;29;19931;-82
2022/03/08 09:15:06;;;;;;;;;;;4.80;99.90;;;;;;4941369;29;20926;-81
2022/03/08 09:17:37;;;;;;;;;;;4.90;99.90;;;;;;4960510;28;21918;-81
2022/03/08 09:20:06;;;;;;;;;;;5.00;99.90;;;;;;4960268;29;19926;-80
2022/03/08 09:22:35;;;;;;;;;;;5.10;99.90;;;;;;4944484;29;20473;-81
2022/03/08 09:25:03;;;;;;;;;;;5.20;99.90;;;;;;4945919;29;19927;-80
2022/03/08 09:27:31;;;;;;;;;;;5.20;99.90;;;;;;4943883;29;19931;-80
2022/03/08 09:29:59;;;;;;;;;;;5.40;99.90;;;;;;4943363;29;19931;-79
2022/03/08 09:32:27;;;;;;;;;;;6.40;99.90;;;;;;4928832;29;19927;-81
2022/03/08 09:34:55;;;;;;;;;;;5.50;99.90;;;;;;4943852;29;19931;-80
2022/03/08 09:37:23;;;;;;;;;;;5.50;99.90;;;;;;4945908;29;19927;-81
2022/03/08 09:39:52;;;;;;;;;;;5.60;99.90;;;;;;4938218;29;19931;-81
2022/03/08 09:42:21;;;;;;;;;;;5.70;99.90;;;;;;4956686;29;19933;-81
2022/03/08 09:44:49;;;;;;;;;;;5.70;99.90;;;;;;4949337;29;19937;-80
2022/03/08 09:47:17;;;;;;;;;;;5.80;99.90;;;;;;4911820;29;19927;-81
2022/03/08 09:49:45;;;;;;;;;;;5.90;99.90;;;;;;4940740;29;19987;-81
2022/03/08 09:52:13;;;;;;;;;;;6.00;99.90;;;;;;4943713;29;20512;-80
2022/03/08 09:54:42;;;;;;;;;;;6.10;99.90;;;;;;4944870;29;19927;-80
2022/03/08 09:57:11;;;;;;;;;;;6.10;99.90;;;;;;4945795;29;19931;-82
2022/03/08 09:59:40;;;;;;;;;;;6.30;99.90;;;;;;4923306;29;19931;-81
2022/03/08 10:02:11;;;;;;;;;;;6.20;99.90;;;;;;4958467;29;20389;-81
2022/03/08 10:04:40;;;;;;;;;;;6.30;99.90;;;;;;4944439;29;19934;-82
2022/03/08 10:07:29;;;;;;;;;;;6.40;99.90;;;;;;4927679;29;19947;-81
2022/03/08 10:09:59;;;;;;;;;;;6.50;99.90;;;;;;4944778;29;19927;-79
2022/03/08 10:12:28;;;;;;;;;;;6.60;99.90;;;;;;4948847;29;19938;-83
2022/03/08 10:14:56;;;;;;;;;;;6.60;99.90;;;;;;4927420;29;20756;-82
2022/03/08 10:17:40;;;;;;;;;;;6.70;99.90;;;;;;4943793;29;20515;-82
2022/03/08 10:20:10;;;;;;;;;;;6.80;99.90;;;;;;4943850;29;19938;-82
2022/03/08 10:22:42;;;;;;;;;;;6.90;99.90;;;;;;4942856;29;20308;-82
2022/03/08 10:25:20;;;;;;;;;;;6.90;99.90;;;;;;4927141;29;20045;-80
2022/03/08 10:27:58;;;;;;;;;;;7.10;99.90;;;;;;4928632;29;19946;-81
2022/03/08 10:30:42;;;;;;;;;;;7.10;99.90;;;;;;4942933;29;19931;-81
2022/03/08 10:33:20;;;;;;;;;;;7.10;99.90;;;;;;4906568;29;19931;-79
2022/03/08 10:35:53;;;;;;;;;;;7.20;99.90;;;;;;4926156;29;19954;-78
2022/03/08 10:38:21;;;;;;;;;;;7.20;99.90;;;;;;4922849;29;19931;-79
2022/03/08 10:40:50;;;;;;;;;;;7.30;99.90;;;;;;4923329;29;21540;-80
2022/03/08 10:43:18;;;;;;;;;;;7.40;99.90;;;;;;4939835;29;19937;-79
2022/03/08 10:45:47;;;;;;;;;;;7.50;99.90;;;;;;4942556;29;19935;-79
2022/03/08 10:48:18;;;;;;;;;;;7.50;99.90;;;;;;4944370;29;19934;-79
2022/03/08 10:50:49;;;;;;;;;;;7.60;99.90;;;;;;4945731;29;20370;-79
2022/03/08 10:53:17;;;;;;;;;;;7.70;99.90;;;;;;4945495;29;19952;-82
2022/03/08 10:55:47;;;;;;;;;;;7.70;99.90;;;;;;4932599;29;19927;-79
2022/03/08 10:58:16;;;;;;;;;;;7.80;99.90;;;;;;4947549;29;19941;-81
2022/03/08 11:00:46;;;;;;;;;;;7.90;99.90;;;;;;4596178;29;10000205;-82
2022/03/08 11:03:16;;;;;;;;;;;7.90;99.90;;;;;;4928786;29;19927;-82
2022/03/08 11:05:54;;;;;;;;;;;8.00;99.90;;;;;;4947076;29;19927;-82
2022/03/08 11:08:28;;;;;;;;;;;8.20;99.90;;;;;;4957544;29;19927;-81
2022/03/08 11:10:57;;;;;;;;;;;8.20;99.90;;;;;;4962710;29;19942;-81
2022/03/08 11:13:25;;;;;;;;;;;8.40;99.90;;;;;;4927924;29;19935;-82
2022/03/08 11:15:54;;;;;;;;;;;8.30;99.90;;;;;;4945800;29;19926;-80
2022/03/08 11:18:23;;;;;;;;;;;8.40;99.90;;;;;;4944982;29;19927;-80
2022/03/08 11:20:59;;;;;;;;;;;8.40;99.90;;;;;;4944893;29;19935;-81
2022/03/08 11:23:29;;;;;;;;;;;8.50;99.90;;;;;;4930725;29;19927;-81
2022/03/08 11:25:57;;;;;;;;;;;8.60;99.90;;;;;;4946222;29;20352;-81
2022/03/08 11:28:27;;;;;;;;;;;8.60;99.20;;;;;;4946445;29;19937;-81
2022/03/08 11:30:56;;;;;;;;;;;8.70;99.50;;;;;;4946666;29;19933;-81
2022/03/08 11:33:46;;;;;;;;;;;8.80;99.60;;;;;;4943468;29;19931;-81
2022/03/08 11:36:27;;;;;;;;;;;8.90;99.40;;;;;;4947598;29;19926;-81
2022/03/08 11:39:12;;;;;;;;;;;9.00;99.40;;;;;;4954797;29;19926;-81
2022/03/08 11:41:41;;;;;;;;;;;9.20;99.70;;;;;;4955405;29;19927;-82
2022/03/08 11:44:20;;;;;;;;;;;9.30;99.30;;;;;;4945023;29;19927;-81
2022/03/08 11:47:04;;;;;;;;;;;9.40;98.70;;;;;;4912277;29;20004;-82
2022/03/08 11:50:00;;;;;;;;;;;9.50;98.50;;;;;;4958168;29;19931;-81
2022/03/08 11:52:35;;;;;;;;;;;9.60;98.60;;;;;;4941800;29;20580;-81
2022/03/08 11:55:06;;;;;;;;;;;9.70;98.10;;;;;;4944794;29;19930;-82
2022/03/08 11:57:43;;;;;;;;;;;10.50;97.50;;;;;;4946861;29;19950;-81
2022/03/08 12:00:15;;;;;;;;;;;8.40;97.20;;;;;;4930447;29;19930;-80
2022/03/08 12:02:45;;;;;;;;;;;10.00;97.20;;;;;;4941689;29;20737;-82
2022/03/08 12:05:33;;;;;;;;;;;10.10;97.20;;;;;;4946886;29;19926;-81
2022/03/08 12:08:20;;;;;;;;;;;10.20;97.70;;;;;;4943651;29;19934;-82
2022/03/08 12:10:49;;;;;;;;;;;10.40;96.20;;;;;;4946622;29;19945;-81
2022/03/08 12:13:37;;;;;;;;;;;10.50;96.80;;;;;;4946492;29;19931;-81
2022/03/08 12:16:05;;;;;;;;;;;10.50;96.80;;;;;;4934957;29;19937;-80
2022/03/08 12:18:55;;;;;;;;;;;10.60;96.90;;;;;;4946566;29;20293;-81
2022/03/08 12:21:27;;;;;;;;;;;10.70;96.50;;;;;;4930041;29;19931;-81
2022/03/08 12:23:58;;;;;;;;;;;10.90;96.50;;;;;;4929819;29;19927;-81
2022/03/08 12:26:31;;;;;;;;;;;10.90;96.10;;;;;;4944073;29;19929;-80
2022/03/08 12:29:23;;;;;;;;;;;11.00;95.20;;;;;;4944943;29;19931;-80
2022/03/08 12:32:06;;;;;;;;;;;11.10;96.40;;;;;;4926856;29;19931;-80
2022/03/08 12:34:45;;;;;;;;;;;11.10;95.40;;;;;;4926071;29;19934;-80
2022/03/08 12:37:39;;;;;;;;;;;11.10;95.40;;;;;;4945438;29;19927;-81
2022/03/08 12:40:08;;;;;;;;;;;11.20;95.50;;;;;;4949705;29;19937;-81
2022/03/08 12:42:37;;;;;;;;;;;11.30;95.10;;;;;;4931028;29;20763;-81
2022/03/08 12:45:20;;;;;;;;;;;11.30;95.10;;;;;;4948130;29;19931;-80
2022/03/08 12:47:50;;;;;;;;;;;10.90;95.00;;;;;;4946739;29;19937;-81
2022/03/08 12:50:21;;;;;;;;;;;11.50;94.60;;;;;;4915685;29;19930;-81
2022/03/08 12:52:51;;;;;;;;;;;11.60;94.60;;;;;;4944132;29;19930;-81
2022/03/08 12:55:23;;;;;;;;;;;11.70;94.70;;;;;;4914579;29;19927;-80
2022/03/08 12:57:51;;;;;;;;;;;11.80;94.20;;;;;;4919845;29;19930;-81
2022/03/08 13:00:23;;;;;;;;;;;12.00;94.30;;;;;;4960120;29;19935;-82
2022/03/08 13:02:52;;;;;;;;;;;10.50;94.00;;;;;;4932509;29;19927;-81
2022/03/08 13:05:27;;;;;;;;;;;12.30;94.40;;;;;;4958847;29;19931;-82
2022/03/08 13:07:56;;;;;;;;;;;12.40;94.00;;;;;;4925741;29;19927;-80
2022/03/08 13:10:25;;;;;;;;;;;12.40;93.80;;;;;;4925782;29;20067;-80
2022/03/08 13:12:56;;;;;;;;;;;12.50;93.40;;;;;;4961205;28;19930;-81
2022/03/08 13:15:26;;;;;;;;;;;12.80;93.70;;;;;;4949224;29;19937;-81
2022/03/08 13:17:56;;;;;;;;;;;12.50;93.40;;;;;;4948116;29;19927;-81
2022/03/08 13:20:35;;;;;;;;;;;12.60;93.10;;;;;;4945418;29;19965;-81
2022/03/08 13:23:08;;;;;;;;;;;12.60;92.60;;;;;;4933734;29;19931;-82
2022/03/08 13:25:38;;;;;;;;;;;12.70;93.10;;;;;;4944947;29;19937;-81
2022/03/08 13:28:15;;;;;;;;;;;12.80;92.70;;;;;;4943803;29;19931;-81
2022/03/08 13:30:48;;;;;;;;;;;12.80;92.70;;;;;;4927254;29;19933;-81
2022/03/08 13:33:27;;;;;;;;;;;12.90;92.40;;;;;;4911979;29;19934;-80
2022/03/08 13:36:04;;;;;;;;;;;13.00;92.90;;;;;;4943770;29;19927;-83
2022/03/08 13:38:35;;;;;;;;;;;13.10;91.90;;;;;;4943765;29;19934;-81
2022/03/08 13:41:05;;;;;;;;;;;13.10;92.80;;;;;;4929647;29;20284;-81
2022/03/08 13:43:34;;;;;;;;;;;13.40;92.20;;;;;;4953701;29;19926;-81
2022/03/08 13:46:18;;;;;;;;;;;13.20;92.30;;;;;;4925186;29;19931;-85
2022/03/08 13:48:57;;;;;;;;;;;13.30;92.20;;;;;;4941019;29;19931;-81
2022/03/08 13:51:26;;;;;;;;;;;13.30;91.80;;;;;;4945528;29;19931;-82
2022/03/08 13:53:55;;;;;;;;;;;13.40;92.10;;;;;;4943841;29;19941;-81
2022/03/08 13:56:24;;;;;;;;;;;13.40;92.10;;;;;;4943330;29;19933;-80
2022/03/08 13:58:55;;;;;;;;;;;13.40;91.60;;;;;;4944761;29;19931;-81
2022/03/08 14:01:25;;;;;;;;;;;13.30;91.70;;;;;;4944448;29;19929;-81
2022/03/08 14:03:59;;;;;;;;;;;13.50;91.40;;;;;;4943012;29;19937;-81
2022/03/08 14:06:33;;;;;;;;;;;13.50;91.90;;;;;;4943442;29;19934;-81
2022/03/08 14:09:02;;;;;;;;;;;13.50;92.10;;;;;;4947643;29;19949;-80
2022/03/08 14:11:37;;;;;;;;;;;12.60;91.40;;;;;;4946965;29;19930;-80
2022/03/08 14:14:05;;;;;;;;;;;13.60;92.10;;;;;;4939572;29;19942;-80
2022/03/08 14:16:38;;;;;;;;;;;13.60;91.60;;;;;;4941456;29;19927;-81
2022/03/08 14:19:07;;;;;;;;;;;12.90;91.70;;;;;;4942827;29;19927;-81
2022/03/08 14:21:36;;;;;;;;;;;13.60;92.00;;;;;;4942478;29;19938;-81
2022/03/08 14:24:12;;;;;;;;;;;13.60;92.10;;;;;;4943434;29;19937;-80
2022/03/08 14:26:56;;;;;;;;;;;13.60;91.80;;;;;;4947347;29;19942;-80
2022/03/08 14:29:24;;;;;;;;;;;13.70;92.00;;;;;;4935219;29;19935;-81
2022/03/08 14:31:53;;;;;;;;;;;13.60;91.90;;;;;;4930914;29;19931;-80
2022/03/08 14:34:23;;;;;;;;;;;13.60;91.60;;;;;;4944432;29;19931;-80
2022/03/08 14:36:51;;;;;;;;;;;13.70;91.80;;;;;;4946637;29;19926;-81
2022/03/08 14:39:20;;;;;;;;;;;13.80;91.30;;;;;;4930412;29;19927;-81
2022/03/08 14:42:00;;;;;;;;;;;13.90;92.00;;;;;;4950178;29;19937;-81
2022/03/08 14:44:30;;;;;;;;;;;14.10;90.80;;;;;;4948595;29;19931;-80